createdAt,value
2017-10-30T00:00:37.616Z,71.90
2017-10-30T00:03:05.260Z,72.14
2017-10-30T00:05:32.809Z,72.27
2017-10-30T00:08:00.314Z,72.28
2017-10-30T00:10:27.827Z,72.59
2017-10-30T00:12:55.323Z,72.69
2017-10-30T00:15:22.829Z,72.36
2017-10-30T00:17:50.332Z,72.08
2017-10-30T00:20:17.836Z,72.21
2017-10-30T00:22:45.316Z,72.33
2017-10-30T00:25:12.832Z,72.28
2017-10-30T00:27:40.288Z,72.28
2017-10-30T00:30:07.744Z,72.22
2017-10-30T00:32:35.249Z,72.54
2017-10-30T00:35:02.720Z,72.43
2017-10-30T00:37:30.196Z,72.50
2017-10-30T00:39:57.711Z,72.53
2017-10-30T00:42:25.172Z,72.33
2017-10-30T00:44:53.692Z,72.20
2017-10-30T00:47:21.145Z,72.24
2017-10-30T00:49:48.711Z,72.37
2017-10-30T00:52:16.172Z,72.34
2017-10-30T00:54:43.706Z,72.71
2017-10-30T00:57:12.026Z,72.89
2017-10-30T00:59:39.716Z,72.74
2017-10-30T01:02:07.226Z,72.96
2017-10-30T01:04:34.689Z,72.81
2017-10-30T01:07:02.486Z,73.09
2017-10-30T01:09:29.969Z,73.35
2017-10-30T01:11:57.424Z,73.57
2017-10-30T01:14:24.922Z,73.70
2017-10-30T01:16:52.382Z,73.89
2017-10-30T01:19:19.880Z,74.34
2017-10-30T01:21:47.352Z,74.46
2017-10-30T01:24:14.882Z,74.77
2017-10-30T01:26:42.409Z,75.27
2017-10-30T01:29:09.937Z,75.27
2017-10-30T01:31:37.494Z,75.33
2017-10-30T01:34:04.996Z,75.56
2017-10-30T01:36:33.166Z,75.57
2017-10-30T01:39:03.107Z,75.36
2017-10-30T01:41:31.176Z,75.21
2017-10-30T01:43:58.979Z,75.11
2017-10-30T01:46:26.434Z,75.24
2017-10-30T01:48:54.252Z,75.13
2017-10-30T01:51:21.732Z,75.29
2017-10-30T01:53:49.245Z,75.27
2017-10-30T01:56:16.732Z,75.53
2017-10-30T01:58:44.199Z,75.47
2017-10-30T02:01:11.668Z,75.48
2017-10-30T02:03:39.142Z,75.30
2017-10-30T02:06:06.603Z,75.26
2017-10-30T02:08:34.128Z,75.64
2017-10-30T02:11:01.605Z,75.73
2017-10-30T02:13:29.092Z,75.45
2017-10-30T02:15:56.644Z,75.53
2017-10-30T02:18:24.107Z,75.27
2017-10-30T02:20:51.607Z,75.02
2017-10-30T02:23:19.111Z,74.96
2017-10-30T02:25:46.626Z,74.60
2017-10-30T02:28:14.092Z,74.81
2017-10-30T02:30:41.610Z,74.69
2017-10-30T02:33:09.584Z,74.67
2017-10-30T02:35:37.306Z,74.83
2017-10-30T02:38:06.816Z,74.67
2017-10-30T02:40:35.087Z,74.82
2017-10-30T02:43:02.608Z,74.37
2017-10-30T02:45:30.078Z,74.42
2017-10-30T02:47:57.601Z,74.42
2017-10-30T02:50:25.110Z,74.54
2017-10-30T02:52:52.595Z,74.67
2017-10-30T02:55:20.100Z,74.63
2017-10-30T02:57:47.586Z,74.40
2017-10-30T03:00:15.048Z,74.53
2017-10-30T03:02:42.518Z,74.57
2017-10-30T03:05:10.005Z,74.86
2017-10-30T03:07:37.600Z,74.77
2017-10-30T03:10:05.077Z,75.04
2017-10-30T03:12:32.544Z,75.14
2017-10-30T03:15:00.050Z,75.07
2017-10-30T03:17:32.543Z,75.00
2017-10-30T03:20:00.040Z,75.06
2017-10-30T03:22:27.516Z,75.19
2017-10-30T03:24:55.022Z,75.08
2017-10-30T03:27:22.507Z,75.37
2017-10-30T03:29:50.094Z,75.19
2017-10-30T03:32:17.609Z,75.53
2017-10-30T03:34:45.091Z,75.42
2017-10-30T03:37:12.618Z,75.66
2017-10-30T03:39:40.111Z,75.46
2017-10-30T03:42:07.559Z,75.29
2017-10-30T03:44:35.067Z,75.25
2017-10-30T03:47:02.574Z,75.33
2017-10-30T03:49:30.084Z,74.98
2017-10-30T03:51:57.605Z,74.98
2017-10-30T03:54:25.872Z,74.76
2017-10-30T03:56:53.334Z,74.84
2017-10-30T03:59:21.088Z,74.78
2017-10-30T04:01:48.605Z,74.76
2017-10-30T04:04:16.089Z,74.36
2017-10-30T04:06:43.630Z,74.37
2017-10-30T04:09:12.015Z,74.39
2017-10-30T04:11:39.507Z,74.60
2017-10-30T04:14:07.017Z,74.56
2017-10-30T04:16:34.502Z,74.82
2017-10-30T04:19:01.962Z,75.03
2017-10-30T04:21:29.479Z,74.66
2017-10-30T04:23:57.017Z,74.62
2017-10-30T04:26:24.506Z,74.66
2017-10-30T04:28:52.079Z,74.65
2017-10-30T04:31:19.547Z,74.85
2017-10-30T04:33:47.026Z,74.80
2017-10-30T04:36:14.591Z,75.14
2017-10-30T04:38:42.069Z,75.00
2017-10-30T04:41:09.547Z,75.05
2017-10-30T04:43:37.053Z,74.93
2017-10-30T04:46:09.651Z,74.97
2017-10-30T04:48:37.145Z,75.12
2017-10-30T04:51:04.644Z,74.84
2017-10-30T04:53:32.158Z,74.86
2017-10-30T04:55:59.646Z,74.88
2017-10-30T04:58:27.163Z,75.02
2017-10-30T05:00:54.708Z,75.05
2017-10-30T05:03:22.213Z,75.05
2017-10-30T05:05:49.927Z,75.17
2017-10-30T05:08:17.433Z,75.05
2017-10-30T05:10:44.958Z,75.02
2017-10-30T05:13:12.442Z,75.20
2017-10-30T05:15:39.952Z,75.23
2017-10-30T05:18:07.418Z,75.05
2017-10-30T05:20:35.834Z,74.95
2017-10-30T05:23:03.420Z,75.20
2017-10-30T05:25:30.909Z,75.26
2017-10-30T05:27:58.371Z,75.16
2017-10-30T05:30:26.774Z,75.08
2017-10-30T05:32:54.230Z,75.01
2017-10-30T05:35:21.726Z,75.19
2017-10-30T05:37:49.271Z,75.28
2017-10-30T05:40:16.771Z,75.24
2017-10-30T05:42:44.268Z,75.38
2017-10-30T05:45:11.752Z,75.28
2017-10-30T05:47:39.258Z,75.47
2017-10-30T05:50:06.723Z,75.35
2017-10-30T05:52:34.219Z,75.35
2017-10-30T05:55:01.801Z,75.37
2017-10-30T05:57:30.319Z,75.40
2017-10-30T05:59:57.855Z,75.35
2017-10-30T06:02:25.381Z,75.39
2017-10-30T06:04:52.850Z,75.01
2017-10-30T06:07:20.344Z,75.16
2017-10-30T06:09:47.821Z,75.14
2017-10-30T06:12:15.309Z,74.97
2017-10-30T06:14:42.801Z,75.11
2017-10-30T06:17:11.196Z,75.38
2017-10-30T06:19:39.666Z,75.49
2017-10-30T06:22:09.725Z,75.50
2017-10-30T06:24:37.273Z,75.85
2017-10-30T06:27:04.902Z,75.55
2017-10-30T06:29:32.424Z,75.47
2017-10-30T06:32:00.846Z,75.20
2017-10-30T06:34:28.465Z,75.34
2017-10-30T06:36:56.059Z,75.34
2017-10-30T06:39:23.627Z,75.43
2017-10-30T06:41:51.280Z,75.54
2017-10-30T06:44:19.169Z,75.47
2017-10-30T06:46:47.387Z,75.72
2017-10-30T06:49:14.921Z,75.61
2017-10-30T06:51:42.460Z,75.56
2017-10-30T06:54:10.082Z,75.58
2017-10-30T06:56:37.758Z,75.53
2017-10-30T06:59:05.352Z,75.84
2017-10-30T07:01:32.930Z,75.46
2017-10-30T07:04:00.525Z,75.66
2017-10-30T07:06:28.333Z,75.78
2017-10-30T07:09:01.203Z,75.75
2017-10-30T07:11:29.065Z,76.11
2017-10-30T07:13:56.895Z,76.03
2017-10-30T07:16:25.354Z,75.94
2017-10-30T07:18:52.968Z,75.70
2017-10-30T07:21:20.521Z,75.86
2017-10-30T07:23:49.153Z,75.93
2017-10-30T07:26:16.752Z,75.87
2017-10-30T07:28:44.414Z,75.94
2017-10-30T07:31:12.066Z,75.93
2017-10-30T07:33:39.626Z,75.71
2017-10-30T07:36:07.245Z,75.43
2017-10-30T07:38:34.901Z,75.24
2017-10-30T07:41:02.439Z,74.98
2017-10-30T07:43:30.047Z,75.04
2017-10-30T07:45:57.736Z,74.84
2017-10-30T07:48:25.510Z,74.18
2017-10-30T07:50:53.886Z,73.95
2017-10-30T07:53:21.622Z,73.80
2017-10-30T07:55:50.146Z,73.72
2017-10-30T07:58:17.734Z,73.65
2017-10-30T08:00:45.271Z,73.03
2017-10-30T08:03:13.606Z,72.69
2017-10-30T08:05:41.211Z,72.81
2017-10-30T08:08:08.758Z,72.71
2017-10-30T08:10:36.240Z,72.94
2017-10-30T08:13:03.792Z,72.84
2017-10-30T08:15:31.275Z,72.53
2017-10-30T08:17:58.921Z,71.97
2017-10-30T08:20:26.455Z,71.83
2017-10-30T08:22:54.003Z,71.69
2017-10-30T08:25:21.496Z,71.84
2017-10-30T08:27:49.080Z,71.70
2017-10-30T08:30:16.672Z,71.42
2017-10-30T08:32:44.271Z,71.78
2017-10-30T08:35:11.789Z,69.89
2017-10-30T08:37:39.310Z,69.63
2017-10-30T08:40:06.856Z,69.74
2017-10-30T08:42:34.364Z,69.63
2017-10-30T08:45:01.929Z,70.02
2017-10-30T08:47:29.542Z,69.80
2017-10-30T08:49:57.167Z,69.82
2017-10-30T08:52:25.877Z,69.58
2017-10-30T08:54:53.561Z,69.08
2017-10-30T08:57:21.029Z,68.45
2017-10-30T08:59:48.506Z,68.13
2017-10-30T09:02:16.217Z,67.92
2017-10-30T09:04:43.859Z,68.01
2017-10-30T09:07:11.353Z,67.59
2017-10-30T09:09:38.903Z,67.43
2017-10-30T09:12:06.412Z,67.42
2017-10-30T09:14:33.888Z,67.15
2017-10-30T09:17:01.400Z,66.88
2017-10-30T09:19:29.010Z,66.65
2017-10-30T09:21:56.615Z,66.56
2017-10-30T09:24:24.233Z,66.40
2017-10-30T09:26:56.830Z,66.75
2017-10-30T09:29:24.417Z,66.12
2017-10-30T09:31:51.992Z,64.99
2017-10-30T09:34:19.531Z,64.66
2017-10-30T09:36:52.964Z,64.31
2017-10-30T09:39:20.925Z,63.83
2017-10-30T09:41:48.475Z,63.82
2017-10-30T09:44:16.256Z,62.92
2017-10-30T09:46:43.892Z,60.15
2017-10-30T09:49:11.469Z,58.02
2017-10-30T09:51:39.086Z,57.58
2017-10-30T09:54:06.725Z,55.55
2017-10-30T09:56:34.365Z,54.50
2017-10-30T09:59:02.024Z,54.51
2017-10-30T10:01:29.738Z,54.80
2017-10-30T10:03:57.441Z,54.71
2017-10-30T10:06:25.007Z,53.97
2017-10-30T10:08:52.557Z,54.62
2017-10-30T10:11:20.081Z,54.60
2017-10-30T10:13:47.586Z,54.83
2017-10-30T10:16:15.113Z,53.83
2017-10-30T10:18:42.691Z,53.32
2017-10-30T10:21:10.385Z,52.05
2017-10-30T10:23:38.056Z,51.94
2017-10-30T10:26:05.784Z,51.89
2017-10-30T10:28:37.312Z,51.16
2017-10-30T10:31:04.913Z,50.64
2017-10-30T10:33:35.197Z,48.74
2017-10-30T10:36:02.861Z,47.66
2017-10-30T10:38:30.524Z,47.22
2017-10-30T10:40:58.153Z,45.27
2017-10-30T10:43:25.697Z,43.89
2017-10-30T10:45:54.333Z,42.96
2017-10-30T10:48:22.020Z,42.72
2017-10-30T10:50:49.800Z,42.19
2017-10-30T10:53:17.491Z,41.49
2017-10-30T10:55:45.053Z,42.21
2017-10-30T10:58:12.804Z,41.38
2017-10-30T11:00:40.364Z,41.48
2017-10-30T11:03:07.898Z,41.96
2017-10-30T11:05:35.456Z,42.23
2017-10-30T11:08:03.082Z,41.55
2017-10-30T11:10:30.639Z,40.98
2017-10-30T11:12:58.231Z,40.14
2017-10-30T11:15:25.753Z,39.46
2017-10-30T11:17:53.683Z,38.56
2017-10-30T11:20:21.175Z,38.80
2017-10-30T11:22:49.069Z,39.28
2017-10-30T11:25:16.610Z,39.62
2017-10-30T11:27:44.167Z,39.60
2017-10-30T11:30:11.808Z,39.41
2017-10-30T11:35:14.231Z,41.54
2017-10-30T11:37:41.886Z,41.73
2017-10-30T11:40:10.136Z,42.53
2017-10-30T11:42:37.875Z,43.18
2017-10-30T11:45:05.941Z,43.92
2017-10-30T11:47:33.794Z,43.87
2017-10-30T11:50:01.685Z,44.32
2017-10-30T11:52:29.263Z,44.94
2017-10-30T11:54:56.967Z,44.58
2017-10-30T11:57:24.851Z,43.94
2017-10-30T11:59:52.859Z,44.52
2017-10-30T12:02:20.974Z,44.30
2017-10-30T12:07:21.447Z,43.71
2017-10-30T12:09:49.064Z,41.83
2017-10-30T12:12:16.824Z,40.11
2017-10-30T12:14:44.537Z,39.00
2017-10-30T12:17:12.164Z,38.35
2017-10-30T12:19:39.651Z,38.38
2017-10-30T12:22:07.273Z,38.63
2017-10-30T12:24:35.858Z,37.89
2017-10-30T12:27:03.643Z,35.98
2017-10-30T12:29:32.146Z,32.93
2017-10-30T12:31:59.778Z,30.65
2017-10-30T12:34:27.308Z,28.95
2017-10-30T12:36:54.838Z,28.11
2017-10-30T12:39:22.387Z,28.29
2017-10-30T12:41:49.916Z,27.41
2017-10-30T12:44:17.421Z,28.08
2017-10-30T12:46:45.111Z,27.80
2017-10-30T12:49:12.730Z,27.03
2017-10-30T12:51:40.330Z,26.61
2017-10-30T12:54:08.501Z,26.35
2017-10-30T12:56:36.114Z,25.37
2017-10-30T12:59:03.649Z,24.77
2017-10-30T13:01:31.382Z,24.23
2017-10-30T13:03:59.193Z,24.46
2017-10-30T13:06:26.709Z,24.65
2017-10-30T13:08:54.216Z,24.43
2017-10-30T13:11:21.792Z,24.41
2017-10-30T13:13:49.365Z,24.81
2017-10-30T13:16:16.874Z,24.86
2017-10-30T13:18:44.448Z,24.49
2017-10-30T13:21:11.946Z,24.89
2017-10-30T13:23:39.515Z,25.54
2017-10-30T13:26:06.985Z,25.50
2017-10-30T13:28:34.538Z,25.60
2017-10-30T13:31:02.044Z,26.16
2017-10-30T13:33:29.567Z,26.38
2017-10-30T13:35:57.158Z,27.14
2017-10-30T13:38:24.719Z,27.07
2017-10-30T13:40:52.205Z,27.42
2017-10-30T13:43:19.727Z,28.22
2017-10-30T13:45:47.258Z,29.11
2017-10-30T13:48:15.447Z,30.26
2017-10-30T13:50:43.986Z,31.49
2017-10-30T13:53:11.541Z,32.14
2017-10-30T13:55:39.139Z,33.47
2017-10-30T13:58:06.652Z,34.63
2017-10-30T14:00:34.181Z,36.49
2017-10-30T14:03:01.703Z,37.07
2017-10-30T14:05:29.241Z,37.71
2017-10-30T14:07:56.791Z,39.13
2017-10-30T14:10:25.226Z,40.28
2017-10-30T14:12:52.695Z,40.46
2017-10-30T14:15:20.178Z,40.88
2017-10-30T14:17:48.300Z,41.38
2017-10-30T14:20:15.796Z,41.79
2017-10-30T14:22:43.337Z,42.05
2017-10-30T14:25:10.807Z,42.83
2017-10-30T14:27:38.343Z,43.17
2017-10-30T14:30:05.875Z,43.55
2017-10-30T14:32:33.433Z,43.39
2017-10-30T14:35:01.053Z,43.63
2017-10-30T14:37:28.645Z,44.21
2017-10-30T14:39:56.127Z,44.26
2017-10-30T14:42:24.121Z,44.45
2017-10-30T14:44:52.371Z,44.85
2017-10-30T14:47:19.950Z,44.89
2017-10-30T14:49:47.468Z,45.43
2017-10-30T14:52:15.061Z,45.58
2017-10-30T14:54:42.621Z,45.75
2017-10-30T14:57:10.130Z,45.94
2017-10-30T14:59:37.637Z,46.33
2017-10-30T15:02:05.182Z,46.86
2017-10-30T15:04:32.701Z,47.08
2017-10-30T15:07:00.303Z,47.40
2017-10-30T15:09:27.827Z,47.81
2017-10-30T15:11:55.742Z,48.32
2017-10-30T15:14:23.474Z,48.31
2017-10-30T15:16:50.953Z,48.80
2017-10-30T15:19:18.448Z,48.70
2017-10-30T15:21:46.070Z,48.63
2017-10-30T15:24:13.536Z,48.77
2017-10-30T15:26:41.045Z,48.62
2017-10-30T15:29:08.516Z,49.01
2017-10-30T15:31:36.072Z,49.33
2017-10-30T15:34:03.548Z,49.15
2017-10-30T15:36:36.085Z,49.57
2017-10-30T15:39:03.667Z,49.77
2017-10-30T15:41:31.323Z,49.59
2017-10-30T15:43:58.836Z,49.94
2017-10-30T15:46:26.328Z,50.26
2017-10-30T15:48:53.856Z,50.72
2017-10-30T15:51:21.352Z,50.89
2017-10-30T15:53:48.909Z,51.11
2017-10-30T15:56:16.552Z,51.21
2017-10-30T15:58:44.070Z,51.75
2017-10-30T16:01:11.609Z,52.01
2017-10-30T16:03:39.228Z,52.32
2017-10-30T16:06:06.687Z,52.19
2017-10-30T16:08:34.198Z,52.31
2017-10-30T16:11:01.660Z,51.98
2017-10-30T16:13:29.188Z,52.29
2017-10-30T16:15:56.729Z,51.87
2017-10-30T16:18:24.201Z,51.75
2017-10-30T16:20:51.711Z,51.89
2017-10-30T16:23:19.375Z,51.92
2017-10-30T16:25:47.849Z,52.06
2017-10-30T16:28:15.341Z,52.16
2017-10-30T16:30:42.839Z,52.38
2017-10-30T16:33:10.369Z,52.44
2017-10-30T16:35:38.911Z,52.66
2017-10-30T16:38:06.582Z,52.93
2017-10-30T16:40:34.251Z,53.04
2017-10-30T16:43:01.812Z,53.57
2017-10-30T16:45:29.371Z,53.77
2017-10-30T16:47:56.888Z,53.55
2017-10-30T16:50:24.366Z,53.78
2017-10-30T16:52:51.873Z,54.29
2017-10-30T16:55:19.493Z,54.27
2017-10-30T16:57:47.052Z,54.66
2017-10-30T17:00:14.624Z,54.69
2017-10-30T17:02:42.140Z,55.10
2017-10-30T17:05:09.669Z,55.25
2017-10-30T17:07:37.226Z,55.50
2017-10-30T17:10:04.802Z,55.32
2017-10-30T17:12:32.322Z,55.34
2017-10-30T17:14:59.863Z,55.24
2017-10-30T17:17:27.392Z,55.82
2017-10-30T17:19:54.925Z,55.53
2017-10-30T17:22:22.495Z,55.43
2017-10-30T17:24:49.981Z,55.62
2017-10-30T17:27:17.500Z,55.86
2017-10-30T17:29:45.171Z,56.14
2017-10-30T17:32:12.949Z,56.22
2017-10-30T17:34:40.428Z,56.14
2017-10-30T17:37:08.044Z,56.07
2017-10-30T17:39:35.558Z,56.15
2017-10-30T17:42:03.146Z,56.34
2017-10-30T17:44:31.487Z,56.74
2017-10-30T17:46:59.250Z,56.88
2017-10-30T17:49:26.881Z,57.37
2017-10-30T17:51:54.536Z,57.27
2017-10-30T17:54:22.068Z,57.39
2017-10-30T17:56:49.592Z,57.40
2017-10-30T17:59:17.182Z,57.61
2017-10-30T18:01:44.971Z,57.73
2017-10-30T18:04:12.522Z,57.68
2017-10-30T18:06:40.073Z,57.68
2017-10-30T18:09:07.729Z,57.96
2017-10-30T18:11:35.276Z,57.89
2017-10-30T18:14:02.831Z,58.20
2017-10-30T18:16:30.438Z,58.33
2017-10-30T18:18:58.024Z,58.45
2017-10-30T18:21:25.616Z,58.45
2017-10-30T18:23:53.246Z,58.63
2017-10-30T18:26:20.956Z,58.63
2017-10-30T18:28:48.757Z,58.71
2017-10-30T18:31:16.289Z,58.88
2017-10-30T18:33:43.935Z,59.02
2017-10-30T18:36:11.466Z,59.19
2017-10-30T18:38:40.586Z,59.49
2017-10-30T18:41:09.281Z,59.46
2017-10-30T18:43:36.786Z,59.82
2017-10-30T18:46:04.362Z,60.05
2017-10-30T18:48:31.957Z,60.14
2017-10-30T18:50:59.492Z,60.32
2017-10-30T18:53:26.981Z,60.53
2017-10-30T18:55:54.552Z,60.62
2017-10-30T18:58:22.086Z,60.61
2017-10-30T19:00:49.645Z,60.97
2017-10-30T19:03:17.279Z,61.11
2017-10-30T19:05:44.842Z,60.98
2017-10-30T19:08:12.474Z,61.29
2017-10-30T19:10:40.017Z,61.39
2017-10-30T19:13:07.565Z,61.43
2017-10-30T19:15:35.054Z,61.39
2017-10-30T19:18:02.832Z,61.29
2017-10-30T19:20:30.481Z,61.20
2017-10-30T19:22:58.256Z,60.98
2017-10-30T19:25:25.858Z,61.10
2017-10-30T19:27:53.440Z,60.98
2017-10-30T19:30:21.050Z,61.07
2017-10-30T19:32:48.673Z,61.00
2017-10-30T19:35:16.198Z,61.27
2017-10-30T19:37:43.897Z,61.36
2017-10-30T19:40:11.429Z,61.48
2017-10-30T19:42:38.974Z,61.59
2017-10-30T19:45:06.498Z,61.72
2017-10-30T19:47:34.340Z,61.96
2017-10-30T19:50:01.865Z,62.30
2017-10-30T19:52:29.380Z,62.61
2017-10-30T19:54:56.960Z,62.83
2017-10-30T19:57:24.507Z,63.17
2017-10-30T19:59:52.064Z,63.62
2017-10-30T20:02:19.560Z,63.85
2017-10-30T20:04:47.109Z,64.24
2017-10-30T20:10:16.410Z,64.95
2017-10-30T20:12:43.956Z,65.06
2017-10-30T20:15:11.859Z,65.20
2017-10-30T20:17:39.503Z,65.36
2017-10-30T20:20:07.166Z,65.66
2017-10-30T20:22:34.716Z,66.02
2017-10-30T20:25:02.198Z,66.04
2017-10-30T20:27:29.722Z,66.37
2017-10-30T20:29:57.208Z,66.69
2017-10-30T20:32:24.916Z,66.66
2017-10-30T20:34:52.421Z,66.86
2017-10-30T20:37:19.964Z,67.05
2017-10-30T20:39:47.679Z,67.21
2017-10-30T20:42:15.533Z,67.24
2017-10-30T20:44:43.073Z,67.40
2017-10-30T20:47:10.613Z,67.28
2017-10-30T20:49:38.678Z,67.39
2017-10-30T20:52:06.311Z,67.43
2017-10-30T20:54:34.013Z,67.54
2017-10-30T20:57:01.690Z,67.67
2017-10-30T20:59:29.187Z,68.04
2017-10-30T21:01:56.798Z,67.85
2017-10-30T21:04:24.374Z,67.82
2017-10-30T21:06:51.880Z,68.14
2017-10-30T21:09:19.429Z,68.33
2017-10-30T21:11:46.937Z,68.41
2017-10-30T21:14:14.526Z,68.56
2017-10-30T21:16:42.062Z,68.90
2017-10-30T21:19:09.677Z,68.27
2017-10-30T21:21:37.266Z,68.30
2017-10-30T21:24:04.864Z,68.44
2017-10-30T21:26:32.581Z,68.76
2017-10-30T21:29:01.184Z,69.40
2017-10-30T21:31:28.730Z,69.57
2017-10-30T21:33:56.414Z,69.86
2017-10-30T21:36:24.057Z,70.13
2017-10-30T21:38:51.829Z,70.40
2017-10-30T21:41:19.395Z,70.70
2017-10-30T21:43:46.938Z,71.10
2017-10-30T21:46:14.573Z,71.44
2017-10-30T21:48:42.143Z,71.57
2017-10-30T21:51:09.760Z,72.02
2017-10-30T21:53:38.188Z,72.34
2017-10-30T21:56:06.960Z,72.79
2017-10-30T21:58:34.864Z,73.13
2017-10-30T22:01:04.409Z,73.38
2017-10-30T22:03:32.164Z,73.61
2017-10-30T22:05:59.837Z,73.75
2017-10-30T22:08:27.424Z,73.95
2017-10-30T22:10:55.088Z,74.30
2017-10-30T22:13:23.853Z,74.46
2017-10-30T22:15:52.347Z,74.46
2017-10-30T22:18:23.280Z,74.74
2017-10-30T22:20:55.489Z,74.98
2017-10-30T22:23:23.301Z,75.21
2017-10-30T22:25:50.799Z,75.42
2017-10-30T22:28:19.951Z,75.50
2017-10-30T22:30:47.948Z,75.76
2017-10-30T22:33:16.280Z,75.88
2017-10-30T22:35:44.602Z,75.96
2017-10-30T22:38:12.277Z,76.08
2017-10-30T22:40:39.753Z,76.16
2017-10-30T22:43:07.604Z,76.18
2017-10-30T22:45:35.153Z,76.35
2017-10-30T22:48:06.899Z,76.50
2017-10-30T22:50:34.677Z,76.88
2017-10-30T22:53:02.422Z,77.10
2017-10-30T22:55:29.987Z,77.32
2017-10-30T22:57:57.460Z,77.45
2017-10-30T23:00:26.231Z,77.77
2017-10-30T23:02:53.959Z,77.80
2017-10-30T23:05:22.263Z,77.84
2017-10-30T23:07:50.276Z,77.81
2017-10-30T23:10:17.824Z,78.44
2017-10-30T23:12:45.296Z,78.58
2017-10-30T23:15:12.823Z,78.67
2017-10-30T23:17:40.559Z,78.38
2017-10-30T23:20:08.291Z,78.16
2017-10-30T23:22:35.950Z,77.90
2017-10-30T23:25:03.477Z,77.95
2017-10-30T23:27:32.540Z,78.06
2017-10-30T23:30:01.686Z,78.22
2017-10-30T23:32:29.198Z,78.11
2017-10-30T23:34:57.094Z,78.25
2017-10-30T23:37:25.901Z,78.33
2017-10-30T23:39:53.668Z,78.44
2017-10-30T23:42:21.465Z,78.42
2017-10-30T23:44:49.073Z,78.42
2017-10-30T23:47:16.786Z,78.37
2017-10-30T23:49:45.729Z,78.55
2017-10-30T23:52:13.520Z,78.46
2017-10-30T23:54:41.109Z,78.74
2017-10-30T23:57:08.614Z,78.56
2017-10-30T23:59:36.135Z,78.43
